createdAt,value
2022-11-23T00:01:36.497Z,76.50
2022-11-23T00:04:07.295Z,76.60
2022-11-23T00:06:35.339Z,76.50
2022-11-23T00:09:03.183Z,76.50
2022-11-23T00:11:31.109Z,76.50
2022-11-23T00:13:58.392Z,76.60
2022-11-23T00:16:33.574Z,76.60
2022-11-23T00:19:01.911Z,76.70
2022-11-23T00:21:31.915Z,76.70
2022-11-23T00:23:59.882Z,76.60
2022-11-23T00:26:29.626Z,76.60
2022-11-23T00:28:56.997Z,76.60
2022-11-23T00:31:26.698Z,76.60
2022-11-23T00:33:55.483Z,76.70
2022-11-23T00:36:26.647Z,76.70
2022-11-23T00:38:58.019Z,76.70
2022-11-23T00:41:28.481Z,76.60
2022-11-23T00:43:55.834Z,76.70
2022-11-23T00:46:25.690Z,76.60
2022-11-23T00:48:55.082Z,76.70
2022-11-23T00:51:25.064Z,76.70
2022-11-23T00:53:53.156Z,76.80
2022-11-23T00:56:21.052Z,76.80
2022-11-23T00:58:52.047Z,76.80
2022-11-23T01:01:22.502Z,76.80
2022-11-23T01:03:55.023Z,76.90
2022-11-23T01:06:25.685Z,76.90
2022-11-23T01:08:57.663Z,76.90
2022-11-23T01:11:28.702Z,76.90
2022-11-23T01:13:56.310Z,76.90
2022-11-23T01:16:27.449Z,77.00
2022-11-23T01:18:55.232Z,77.00
2022-11-23T01:21:23.944Z,77.00
2022-11-23T01:23:54.039Z,77.00
2022-11-23T01:26:24.431Z,77.00
2022-11-23T01:28:52.392Z,77.10
2022-11-23T01:31:23.105Z,77.00
2022-11-23T01:34:04.170Z,77.00
2022-11-23T01:36:33.260Z,76.90
2022-11-23T01:39:02.247Z,76.90
2022-11-23T01:41:35.643Z,76.90
2022-11-23T01:44:32.139Z,77.00
2022-11-23T01:47:01.807Z,76.90
2022-11-23T01:49:35.922Z,76.90
2022-11-23T01:52:14.622Z,76.90
2022-11-23T01:54:50.017Z,76.90
2022-11-23T01:57:22.829Z,76.90
2022-11-23T01:59:51.573Z,77.00
2022-11-23T02:02:19.107Z,77.10
2022-11-23T02:04:49.229Z,77.00
2022-11-23T02:07:18.298Z,77.10
2022-11-23T02:09:49.086Z,77.10
2022-11-23T02:12:16.658Z,77.20
2022-11-23T02:22:22.848Z,77.10
2022-11-23T02:24:56.275Z,77.10
2022-11-23T02:27:24.040Z,77.30
2022-11-23T02:29:52.443Z,77.30
2022-11-23T02:32:23.738Z,77.30
2022-11-23T02:34:51.129Z,77.30
2022-11-23T02:37:19.021Z,77.30
2022-11-23T02:39:52.006Z,77.30
2022-11-23T02:42:19.425Z,77.30
2022-11-23T02:45:06.600Z,77.30
2022-11-23T02:47:38.576Z,77.40
2022-11-23T02:50:08.370Z,77.40
2022-11-23T02:52:38.267Z,77.40
2022-11-23T02:55:05.878Z,77.50
2022-11-23T02:57:33.142Z,77.40
2022-11-23T03:00:00.510Z,77.40
2022-11-23T03:02:27.817Z,77.30
2022-11-23T03:04:55.054Z,77.30
2022-11-23T03:07:24.874Z,77.30
2022-11-23T03:09:54.553Z,77.30
2022-11-23T03:12:21.843Z,77.30
2022-11-23T03:14:49.126Z,77.40
2022-11-23T03:17:18.751Z,77.40
2022-11-23T03:19:45.997Z,77.40
2022-11-23T03:22:13.451Z,77.50
2022-11-23T03:24:40.696Z,77.50
2022-11-23T03:27:08.015Z,77.60
2022-11-23T03:29:35.270Z,77.60
2022-11-23T03:32:04.908Z,77.60
2022-11-23T03:34:35.002Z,78.30
2022-11-23T03:37:02.526Z,77.60
2022-11-23T03:39:30.055Z,77.60
2022-11-23T03:42:00.164Z,77.50
2022-11-23T03:44:27.429Z,77.50
2022-11-23T03:46:54.767Z,78.20
2022-11-23T03:49:22.033Z,77.50
2022-11-23T03:51:49.391Z,77.50
2022-11-23T03:54:16.832Z,77.60
2022-11-23T03:56:44.126Z,77.60
2022-11-23T03:59:13.648Z,77.60
2022-11-23T04:01:40.959Z,77.70
2022-11-23T04:04:08.183Z,77.60
2022-11-23T04:06:35.487Z,77.60
2022-11-23T04:09:05.327Z,77.70
2022-11-23T04:11:34.815Z,77.60
2022-11-23T04:14:04.601Z,77.60
2022-11-23T04:16:31.863Z,77.70
2022-11-23T04:19:01.486Z,77.70
2022-11-23T04:21:28.748Z,77.70
2022-11-23T04:23:56.001Z,77.80
2022-11-23T04:26:23.252Z,77.80
2022-11-23T04:28:50.487Z,77.80
2022-11-23T04:31:17.795Z,77.80
2022-11-23T04:33:45.106Z,77.80
2022-11-23T04:36:14.733Z,77.70
2022-11-23T04:38:41.972Z,77.70
2022-11-23T04:41:09.738Z,77.70
2022-11-23T04:43:39.186Z,77.60
2022-11-23T04:46:06.573Z,77.50
2022-11-23T04:48:33.827Z,77.40
2022-11-23T04:51:01.080Z,77.50
2022-11-23T04:53:28.346Z,77.40
2022-11-23T04:55:55.618Z,77.50
2022-11-23T04:58:22.910Z,77.50
2022-11-23T05:00:50.176Z,77.60
2022-11-23T05:03:17.498Z,77.50
2022-11-23T05:05:47.360Z,77.40
2022-11-23T05:08:14.627Z,77.50
2022-11-23T05:10:42.179Z,77.50
2022-11-23T05:13:09.425Z,77.30
2022-11-23T05:15:36.666Z,77.40
2022-11-23T05:18:06.811Z,77.50
2022-11-23T05:20:34.949Z,77.30
2022-11-23T05:23:04.542Z,77.40
2022-11-23T05:25:31.874Z,77.40
2022-11-23T05:28:16.623Z,77.30
2022-11-23T05:30:51.736Z,77.50
2022-11-23T05:33:18.987Z,77.50
2022-11-23T05:35:48.869Z,77.50
2022-11-23T05:38:18.631Z,77.30
2022-11-23T05:40:48.367Z,77.20
2022-11-23T05:43:15.639Z,77.10
2022-11-23T05:45:45.255Z,77.00
2022-11-23T05:48:12.592Z,77.00
2022-11-23T05:50:39.831Z,77.00
2022-11-23T05:53:07.101Z,77.30
2022-11-23T05:55:38.868Z,77.40
2022-11-23T05:58:08.610Z,77.50
2022-11-23T06:00:38.557Z,77.50
2022-11-23T06:03:05.803Z,77.40
2022-11-23T06:05:35.334Z,77.40
2022-11-23T06:08:02.594Z,77.50
2022-11-23T06:10:29.913Z,77.60
2022-11-23T06:13:05.594Z,77.70
2022-11-23T06:15:32.914Z,77.70
2022-11-23T06:18:01.602Z,77.70
2022-11-23T06:20:29.401Z,77.70
2022-11-23T06:22:56.987Z,77.70
2022-11-23T06:25:24.314Z,77.70
2022-11-23T06:27:59.779Z,77.70
2022-11-23T06:30:30.784Z,77.70
2022-11-23T06:32:58.475Z,77.70
2022-11-23T06:35:30.106Z,77.70
2022-11-23T06:37:59.744Z,77.70
2022-11-23T06:40:27.440Z,77.80
2022-11-23T06:43:00.954Z,77.80
2022-11-23T06:45:30.587Z,77.90
2022-11-23T06:47:57.881Z,77.80
2022-11-23T06:50:25.149Z,77.90
2022-11-23T06:52:56.540Z,77.80
2022-11-23T06:55:24.925Z,77.80
2022-11-23T06:57:52.390Z,77.90
2022-11-23T07:00:20.156Z,77.90
2022-11-23T07:02:54.434Z,77.90
2022-11-23T07:05:22.553Z,78.00
2022-11-23T07:07:49.969Z,78.00
2022-11-23T07:10:17.779Z,78.00
2022-11-23T07:12:45.154Z,78.00
2022-11-23T07:15:13.849Z,78.00
2022-11-23T07:17:41.651Z,78.00
2022-11-23T07:20:10.593Z,78.00
2022-11-23T07:22:38.314Z,77.90
2022-11-23T07:25:08.892Z,77.90
2022-11-23T07:27:36.191Z,78.00
2022-11-23T07:30:06.811Z,77.90
2022-11-23T07:32:34.087Z,77.90
2022-11-23T07:35:01.410Z,78.00
2022-11-23T07:37:28.694Z,77.90
2022-11-23T07:39:57.857Z,77.90
2022-11-23T07:42:39.902Z,77.90
2022-11-23T07:45:11.363Z,77.90
2022-11-23T07:47:39.021Z,77.90
2022-11-23T07:50:07.761Z,77.80
2022-11-23T07:52:36.587Z,77.80
2022-11-23T07:55:04.211Z,77.80
2022-11-23T07:57:31.490Z,77.70
2022-11-23T07:59:58.876Z,77.80
2022-11-23T08:02:26.277Z,77.70
2022-11-23T08:04:56.169Z,77.70
2022-11-23T08:07:23.461Z,77.70
2022-11-23T08:09:53.022Z,77.70
2022-11-23T08:12:20.312Z,77.80
2022-11-23T08:14:47.554Z,77.80
2022-11-23T08:17:14.843Z,77.80
2022-11-23T08:19:44.444Z,77.60
2022-11-23T08:22:15.631Z,77.50
2022-11-23T08:24:43.236Z,77.60
2022-11-23T08:27:10.632Z,77.70
2022-11-23T08:29:37.914Z,77.70
2022-11-23T08:32:05.309Z,77.70
2022-11-23T08:34:32.778Z,77.60
2022-11-23T08:37:04.987Z,77.60
2022-11-23T08:39:32.299Z,77.60
2022-11-23T08:42:01.884Z,77.60
2022-11-23T08:44:31.821Z,77.70
2022-11-23T08:46:59.369Z,77.70
2022-11-23T08:49:26.683Z,77.70
2022-11-23T08:51:54.737Z,77.70
2022-11-23T08:54:24.671Z,77.70
2022-11-23T08:56:54.506Z,77.60
2022-11-23T08:59:21.785Z,77.60
2022-11-23T09:01:51.177Z,77.60
2022-11-23T09:04:20.845Z,77.60
2022-11-23T09:06:48.429Z,77.60
2022-11-23T09:09:15.728Z,77.60
2022-11-23T09:11:42.980Z,77.60
2022-11-23T09:14:10.247Z,77.60
2022-11-23T09:16:40.098Z,77.60
2022-11-23T09:19:08.249Z,77.50
2022-11-23T09:21:37.917Z,77.50
2022-11-23T09:24:05.448Z,77.50
2022-11-23T09:26:34.513Z,77.50
2022-11-23T09:29:04.854Z,77.50
2022-11-23T09:31:32.185Z,77.50
2022-11-23T09:33:59.453Z,77.50
2022-11-23T09:36:26.794Z,77.40
2022-11-23T09:38:57.040Z,77.40
2022-11-23T09:41:36.611Z,77.40
2022-11-23T09:44:08.025Z,77.40
2022-11-23T09:47:11.123Z,77.40
2022-11-23T09:50:00.470Z,77.30
2022-11-23T09:52:29.802Z,77.20
2022-11-23T09:55:05.630Z,77.40
2022-11-23T09:57:34.532Z,77.40
2022-11-23T10:00:06.507Z,77.40
2022-11-23T10:02:40.279Z,77.40
2022-11-23T10:05:11.035Z,77.50
2022-11-23T10:08:01.541Z,77.50
2022-11-23T10:10:53.706Z,77.50
2022-11-23T10:13:29.419Z,77.40
2022-11-23T10:16:10.030Z,77.50
2022-11-23T10:18:50.145Z,77.50
2022-11-23T10:21:26.082Z,77.40
2022-11-23T10:23:56.370Z,77.40
2022-11-23T10:26:34.263Z,77.50
2022-11-23T10:29:34.635Z,77.50
2022-11-23T10:32:02.492Z,77.50
2022-11-23T10:35:05.807Z,77.50
2022-11-23T10:37:38.408Z,77.50
2022-11-23T10:40:21.518Z,77.50
2022-11-23T10:43:07.358Z,77.60
2022-11-23T10:45:34.645Z,77.60
2022-11-23T10:48:02.079Z,77.70
2022-11-23T10:50:32.301Z,77.70
2022-11-23T10:53:17.638Z,77.60
2022-11-23T10:55:59.907Z,77.60
2022-11-23T10:58:29.915Z,77.60
2022-11-23T11:01:01.949Z,77.60
2022-11-23T11:03:33.230Z,77.60
2022-11-23T11:06:10.387Z,77.70
2022-11-23T11:08:54.613Z,77.70
2022-11-23T11:11:29.014Z,77.60
2022-11-23T11:14:19.783Z,77.70
2022-11-23T11:16:55.018Z,77.70
2022-11-23T11:19:28.108Z,77.70
2022-11-23T11:21:56.698Z,77.80
2022-11-23T11:24:44.975Z,77.80
2022-11-23T11:27:19.990Z,77.60
2022-11-23T11:29:52.649Z,77.60
2022-11-23T11:33:06.598Z,77.60
2022-11-23T11:35:38.240Z,77.50
2022-11-23T11:38:22.179Z,77.50
2022-11-23T11:40:53.244Z,77.50
2022-11-23T11:43:40.205Z,77.40
2022-11-23T11:46:29.887Z,77.40
2022-11-23T11:49:05.801Z,77.40
2022-11-23T11:51:33.039Z,77.40
2022-11-23T11:54:03.556Z,77.20
2022-11-23T11:56:35.123Z,77.10
2022-11-23T11:59:45.059Z,77.70
2022-11-23T12:02:26.434Z,77.00
2022-11-23T12:05:23.787Z,77.20
2022-11-23T12:08:11.875Z,77.00
2022-11-23T12:10:55.566Z,77.00
2022-11-23T12:13:35.090Z,77.10
2022-11-23T12:16:05.623Z,77.10
2022-11-23T12:18:51.331Z,77.20
2022-11-23T12:21:34.618Z,77.30
2022-11-23T12:24:38.895Z,77.40
2022-11-23T12:27:24.714Z,77.40
2022-11-23T12:30:42.661Z,77.50
2022-11-23T12:33:37.201Z,77.50
2022-11-23T12:36:43.850Z,77.40
2022-11-23T12:39:50.271Z,77.50
2022-11-23T12:42:23.282Z,77.40
2022-11-23T12:44:59.671Z,77.50
2022-11-23T12:47:54.432Z,77.40
2022-11-23T12:50:38.823Z,77.50
2022-11-23T12:53:31.214Z,77.10
2022-11-23T12:56:25.654Z,77.00
2022-11-23T12:58:55.109Z,77.10
2022-11-23T13:01:34.445Z,77.00
2022-11-23T13:04:15.108Z,76.90
2022-11-23T13:07:39.795Z,76.90
2022-11-23T13:10:41.391Z,76.60
2022-11-23T13:13:39.321Z,76.40
2022-11-23T13:16:35.864Z,76.50
2022-11-23T13:19:16.639Z,76.60
2022-11-23T13:21:45.467Z,76.70
2022-11-23T13:24:31.544Z,76.70
2022-11-23T13:27:14.490Z,76.50
2022-11-23T13:29:50.839Z,76.50
2022-11-23T13:32:39.616Z,76.50
2022-11-23T13:35:18.924Z,76.50
2022-11-23T13:37:58.168Z,76.60
2022-11-23T13:40:33.374Z,76.50
2022-11-23T13:43:23.073Z,76.40
2022-11-23T13:46:22.313Z,76.40
2022-11-23T13:48:57.147Z,76.40
2022-11-23T13:51:31.542Z,76.40
2022-11-23T13:54:19.559Z,76.40
2022-11-23T13:56:56.878Z,76.40
2022-11-23T13:59:32.028Z,76.40
2022-11-23T14:02:22.175Z,76.40
2022-11-23T14:04:49.560Z,76.40
2022-11-23T14:07:46.104Z,76.40
2022-11-23T14:10:24.156Z,76.30
2022-11-23T14:12:51.393Z,76.10
2022-11-23T14:15:22.176Z,76.10
2022-11-23T14:18:09.414Z,76.10
2022-11-23T14:21:12.479Z,76.10
2022-11-23T14:24:16.687Z,76.20
2022-11-23T14:30:26.497Z,76.20
2022-11-23T14:33:22.162Z,76.20
2022-11-23T14:35:52.412Z,76.10
2022-11-23T14:38:33.643Z,76.00
2022-11-23T14:41:04.056Z,76.00
2022-11-23T14:43:33.400Z,76.10
2022-11-23T14:46:13.602Z,76.20
2022-11-23T14:48:40.922Z,76.30
2022-11-23T14:51:18.253Z,76.40
2022-11-23T14:53:49.002Z,76.30
2022-11-23T14:56:43.971Z,76.30
2022-11-23T14:59:19.058Z,76.30
2022-11-23T15:01:53.158Z,76.30
2022-11-23T15:04:52.892Z,76.30
2022-11-23T15:07:28.074Z,76.40
2022-11-23T15:10:30.407Z,76.20
2022-11-23T15:12:57.712Z,76.40
2022-11-23T15:15:37.926Z,76.50
2022-11-23T15:18:05.285Z,76.20
2022-11-23T15:20:35.175Z,76.20
2022-11-23T15:23:03.531Z,76.20
2022-11-23T15:25:32.138Z,76.10
2022-11-23T15:27:59.694Z,76.20
2022-11-23T15:30:29.401Z,76.20
2022-11-23T15:33:01.789Z,76.30
2022-11-23T15:35:33.435Z,76.30
2022-11-23T15:38:02.797Z,76.40
2022-11-23T15:40:36.773Z,76.30
2022-11-23T15:43:04.568Z,76.20
2022-11-23T15:45:44.225Z,76.20
2022-11-23T15:48:21.546Z,76.10
2022-11-23T15:50:51.896Z,76.10
2022-11-23T15:53:24.559Z,76.30
2022-11-23T15:55:52.793Z,76.70
2022-11-23T15:58:21.153Z,76.50
2022-11-23T16:01:14.649Z,76.50
2022-11-23T16:04:04.868Z,76.60
2022-11-23T16:06:45.000Z,76.40
2022-11-23T16:09:53.531Z,76.20
2022-11-23T16:12:35.512Z,76.20
2022-11-23T16:15:46.364Z,76.20
2022-11-23T16:18:13.590Z,76.50
2022-11-23T16:20:51.136Z,76.40
2022-11-23T16:23:29.161Z,76.40
2022-11-23T16:26:02.923Z,76.30
2022-11-23T16:28:36.515Z,76.90
2022-11-23T16:31:04.337Z,76.20
2022-11-23T16:33:32.076Z,76.20
2022-11-23T16:36:01.716Z,76.20
2022-11-23T16:38:28.997Z,76.20
2022-11-23T16:40:56.494Z,76.20
2022-11-23T16:43:26.308Z,76.10
2022-11-23T16:45:56.046Z,76.00
2022-11-23T16:48:38.968Z,76.00
2022-11-23T16:51:06.940Z,75.90
2022-11-23T16:53:53.426Z,75.90
2022-11-23T16:56:26.202Z,76.00
2022-11-23T16:58:55.201Z,76.20
2022-11-23T17:01:26.092Z,76.20
2022-11-23T17:03:56.286Z,76.40
2022-11-23T17:06:23.691Z,76.40
2022-11-23T17:08:59.228Z,76.40
2022-11-23T17:11:28.519Z,76.50
2022-11-23T17:13:58.999Z,76.30
2022-11-23T17:16:26.998Z,76.40
2022-11-23T17:18:54.431Z,76.40
2022-11-23T17:21:21.678Z,76.50
2022-11-23T17:23:48.967Z,76.60
2022-11-23T17:26:41.907Z,76.60
2022-11-23T17:29:20.088Z,76.50
2022-11-23T17:31:50.431Z,76.50
2022-11-23T17:34:20.161Z,76.40
2022-11-23T17:36:50.894Z,76.30
2022-11-23T17:39:22.557Z,76.30
2022-11-23T17:41:49.967Z,76.30
2022-11-23T17:44:17.690Z,76.20
2022-11-23T17:46:46.962Z,76.10
2022-11-23T17:49:17.009Z,76.00
2022-11-23T17:51:46.748Z,76.00
2022-11-23T17:54:16.438Z,76.00
2022-11-23T17:56:43.682Z,76.00
2022-11-23T17:59:11.062Z,75.90
2022-11-23T18:01:38.475Z,76.00
2022-11-23T18:04:08.383Z,75.90
2022-11-23T18:06:35.994Z,75.90
2022-11-23T18:09:06.533Z,75.70
2022-11-23T18:11:33.771Z,75.70
2022-11-23T18:14:01.095Z,75.70
2022-11-23T18:16:28.366Z,75.70
2022-11-23T18:18:55.858Z,75.80
2022-11-23T18:21:23.326Z,75.80
2022-11-23T18:23:58.942Z,75.90
2022-11-23T18:26:30.501Z,75.80
2022-11-23T18:28:57.951Z,75.70
2022-11-23T18:31:25.309Z,75.70
2022-11-23T18:33:52.672Z,75.70
2022-11-23T18:36:22.299Z,75.60
2022-11-23T18:38:49.624Z,75.60
2022-11-23T18:41:17.288Z,75.60
2022-11-23T18:43:45.139Z,75.60
2022-11-23T18:46:19.262Z,75.50
2022-11-23T18:48:48.792Z,75.40
2022-11-23T18:51:20.353Z,75.50
2022-11-23T18:53:48.120Z,76.10
2022-11-23T18:56:16.015Z,75.50
2022-11-23T18:58:44.651Z,75.50
2022-11-23T19:01:17.755Z,75.50
2022-11-23T19:03:46.964Z,75.40
2022-11-23T19:06:15.917Z,75.50
2022-11-23T19:08:47.672Z,75.50
2022-11-23T19:11:25.164Z,75.50
2022-11-23T19:13:57.291Z,75.60
2022-11-23T19:16:27.167Z,75.60
2022-11-23T19:19:00.443Z,75.60
2022-11-23T19:21:30.235Z,75.80
2022-11-23T19:23:58.886Z,75.90
2022-11-23T19:26:27.380Z,76.00
2022-11-23T19:28:55.906Z,76.10
2022-11-23T19:31:27.221Z,76.20
2022-11-23T19:34:00.605Z,76.40
2022-11-23T19:36:33.224Z,76.50
2022-11-23T19:39:00.753Z,76.50
2022-11-23T19:41:33.295Z,76.50
2022-11-23T19:44:03.907Z,76.60
2022-11-23T19:46:31.806Z,76.60
2022-11-23T19:48:59.563Z,76.60
2022-11-23T19:51:29.191Z,76.70
2022-11-23T19:54:01.084Z,76.90
2022-11-23T19:56:31.955Z,76.90
2022-11-23T19:59:01.050Z,76.90
2022-11-23T20:01:31.979Z,76.80
2022-11-23T20:04:08.598Z,76.90
2022-11-23T20:06:42.457Z,76.80
2022-11-23T20:09:16.662Z,76.90
2022-11-23T20:11:49.332Z,76.90
2022-11-23T20:14:18.101Z,76.80
2022-11-23T20:16:45.464Z,76.90
2022-11-23T20:19:12.757Z,76.90
2022-11-23T20:21:40.041Z,77.00
2022-11-23T20:24:12.289Z,77.00
2022-11-23T20:26:40.973Z,77.00
2022-11-23T20:29:09.342Z,77.10
2022-11-23T20:31:37.591Z,77.00
2022-11-23T20:34:08.170Z,77.10
2022-11-23T20:36:37.639Z,77.10
2022-11-23T20:39:07.149Z,77.10
2022-11-23T20:41:36.183Z,76.80
2022-11-23T20:44:06.318Z,76.80
2022-11-23T20:49:24.094Z,76.90
2022-11-23T20:51:51.313Z,76.90
2022-11-23T20:54:18.639Z,77.00
2022-11-23T20:56:48.118Z,77.10
2022-11-23T20:59:15.535Z,77.10
2022-11-23T21:01:42.905Z,77.20
2022-11-23T21:04:12.366Z,77.20
2022-11-23T21:06:42.067Z,77.30
2022-11-23T21:09:12.160Z,77.90
2022-11-23T21:11:58.438Z,76.80
2022-11-23T21:14:28.425Z,76.90
2022-11-23T21:17:00.156Z,76.80
2022-11-23T21:19:29.660Z,77.00
2022-11-23T21:22:02.810Z,77.90
2022-11-23T21:24:30.062Z,77.20
2022-11-23T21:26:57.338Z,77.20
2022-11-23T21:29:27.689Z,77.10
2022-11-23T21:31:54.980Z,77.30
2022-11-23T21:34:26.393Z,77.20
2022-11-23T21:36:55.113Z,76.70
2022-11-23T21:39:25.161Z,76.60
2022-11-23T21:41:54.278Z,76.60
2022-11-23T21:44:24.841Z,76.20
2022-11-23T21:46:52.359Z,76.50
2022-11-23T21:49:19.682Z,76.50
2022-11-23T21:51:47.385Z,76.20
2022-11-23T21:54:15.829Z,76.20
2022-11-23T21:56:45.631Z,76.20
2022-11-23T21:59:13.743Z,76.40
2022-11-23T22:01:41.865Z,76.70
2022-11-23T22:04:15.313Z,76.90
2022-11-23T22:06:45.358Z,77.10
2022-11-23T22:09:13.413Z,77.20
2022-11-23T22:11:42.982Z,77.50
2022-11-23T22:14:14.809Z,77.50
2022-11-23T22:16:43.714Z,77.50
2022-11-23T22:19:12.450Z,77.60
2022-11-23T22:21:41.144Z,77.10
2022-11-23T22:24:13.183Z,77.00
2022-11-23T22:26:40.953Z,76.60
2022-11-23T22:29:09.047Z,76.80
2022-11-23T22:31:36.849Z,76.70
2022-11-23T22:34:08.772Z,76.30
2022-11-23T22:36:38.513Z,76.60
2022-11-23T22:39:07.179Z,76.60
2022-11-23T22:41:37.261Z,76.60
2022-11-23T22:44:07.043Z,76.60
2022-11-23T22:46:34.450Z,76.80
2022-11-23T22:49:01.999Z,75.70
2022-11-23T22:51:30.166Z,75.90
2022-11-23T22:53:59.637Z,76.10
2022-11-23T22:56:28.734Z,76.10
2022-11-23T22:58:56.567Z,76.10
2022-11-23T23:01:26.772Z,75.80
2022-11-23T23:03:56.296Z,75.40
2022-11-23T23:06:26.044Z,75.50
2022-11-23T23:08:58.739Z,75.50
2022-11-23T23:11:28.431Z,75.60
2022-11-23T23:13:56.159Z,75.40
2022-11-23T23:16:24.632Z,75.50
2022-11-23T23:18:55.160Z,76.00
2022-11-23T23:21:23.298Z,76.30
2022-11-23T23:23:52.855Z,76.00
2022-11-23T23:26:22.579Z,75.80
2022-11-23T23:28:53.551Z,76.20
2022-11-23T23:31:23.594Z,76.50
2022-11-23T23:33:51.203Z,76.80
2022-11-23T23:36:20.922Z,77.00
2022-11-23T23:38:48.706Z,77.00
2022-11-23T23:41:16.355Z,77.10
2022-11-23T23:43:43.734Z,77.10
2022-11-23T23:46:13.689Z,77.00
2022-11-23T23:48:41.247Z,76.90
2022-11-23T23:51:16.854Z,76.80
2022-11-23T23:53:45.785Z,76.70
2022-11-23T23:56:16.054Z,76.80
2022-11-23T23:58:44.038Z,76.70
